sensor_id;sensor_type;location;lat;lon;timestamp;P1;durP1;ratioP1;P2;durP2;ratioP2
30617;SDS011;17384;51.214;9.202;2022-11-20T00:01:59;32.63;;;14.20;;
30617;SDS011;17384;51.214;9.202;2022-11-20T00:04:24;31.05;;;14.23;;
30617;SDS011;17384;51.214;9.202;2022-11-20T00:06:49;34.70;;;14.15;;
30617;SDS011;17384;51.214;9.202;2022-11-20T00:09:15;27.90;;;14.25;;
30617;SDS011;17384;51.214;9.202;2022-11-20T00:11:40;30.10;;;13.88;;
30617;SDS011;17384;51.214;9.202;2022-11-20T00:14:05;27.38;;;13.40;;
30617;SDS011;17384;51.214;9.202;2022-11-20T00:16:31;28.50;;;13.30;;
30617;SDS011;17384;51.214;9.202;2022-11-20T00:18:56;31.52;;;13.90;;
30617;SDS011;17384;51.214;9.202;2022-11-20T00:21:23;29.27;;;13.48;;
30617;SDS011;17384;51.214;9.202;2022-11-20T00:23:49;26.58;;;13.60;;
30617;SDS011;17384;51.214;9.202;2022-11-20T00:26:15;29.52;;;13.30;;
30617;SDS011;17384;51.214;9.202;2022-11-20T00:28:42;32.70;;;15.27;;
30617;SDS011;17384;51.214;9.202;2022-11-20T00:31:08;26.60;;;13.82;;
30617;SDS011;17384;51.214;9.202;2022-11-20T00:33:34;27.58;;;12.73;;
30617;SDS011;17384;51.214;9.202;2022-11-20T00:36:06;33.65;;;15.05;;
30617;SDS011;17384;51.214;9.202;2022-11-20T00:38:32;26.77;;;12.98;;
30617;SDS011;17384;51.214;9.202;2022-11-20T00:40:58;35.55;;;14.02;;
30617;SDS011;17384;51.214;9.202;2022-11-20T00:43:23;34.33;;;14.98;;
30617;SDS011;17384;51.214;9.202;2022-11-20T00:45:49;37.10;;;15.38;;
30617;SDS011;17384;51.214;9.202;2022-11-20T00:48:15;36.28;;;16.73;;
30617;SDS011;17384;51.214;9.202;2022-11-20T00:50:40;32.85;;;15.57;;
30617;SDS011;17384;51.214;9.202;2022-11-20T00:53:06;34.33;;;15.65;;
30617;SDS011;17384;51.214;9.202;2022-11-20T00:55:31;29.33;;;13.68;;
30617;SDS011;17384;51.214;9.202;2022-11-20T00:57:56;34.92;;;14.27;;
30617;SDS011;17384;51.214;9.202;2022-11-20T01:00:22;35.50;;;15.70;;
30617;SDS011;17384;51.214;9.202;2022-11-20T01:02:47;30.00;;;14.57;;
30617;SDS011;17384;51.214;9.202;2022-11-20T01:05:12;31.70;;;14.13;;
30617;SDS011;17384;51.214;9.202;2022-11-20T01:07:38;31.30;;;14.80;;
30617;SDS011;17384;51.214;9.202;2022-11-20T01:10:03;38.63;;;16.65;;
30617;SDS011;17384;51.214;9.202;2022-11-20T01:12:28;30.73;;;14.50;;
30617;SDS011;17384;51.214;9.202;2022-11-20T01:14:54;33.17;;;13.80;;
30617;SDS011;17384;51.214;9.202;2022-11-20T01:17:19;33.80;;;14.65;;
30617;SDS011;17384;51.214;9.202;2022-11-20T01:19:44;31.27;;;13.82;;
30617;SDS011;17384;51.214;9.202;2022-11-20T01:22:10;32.60;;;13.98;;
30617;SDS011;17384;51.214;9.202;2022-11-20T01:24:35;33.35;;;14.35;;
30617;SDS011;17384;51.214;9.202;2022-11-20T01:27:00;28.85;;;13.70;;
30617;SDS011;17384;51.214;9.202;2022-11-20T01:29:26;30.17;;;14.35;;
30617;SDS011;17384;51.214;9.202;2022-11-20T01:31:51;30.40;;;13.45;;
30617;SDS011;17384;51.214;9.202;2022-11-20T01:34:18;32.72;;;13.38;;
30617;SDS011;17384;51.214;9.202;2022-11-20T01:36:44;33.92;;;15.07;;
30617;SDS011;17384;51.214;9.202;2022-11-20T01:39:16;36.80;;;15.40;;
30617;SDS011;17384;51.214;9.202;2022-11-20T01:41:42;29.50;;;14.93;;
30617;SDS011;17384;51.214;9.202;2022-11-20T01:47:10;37.10;;;14.38;;
30617;SDS011;17384;51.214;9.202;2022-11-20T01:50:11;33.45;;;16.60;;
30617;SDS011;17384;51.214;9.202;2022-11-20T01:52:39;38.85;;;15.48;;
30617;SDS011;17384;51.214;9.202;2022-11-20T01:57:31;28.02;;;13.00;;
30617;SDS011;17384;51.214;9.202;2022-11-20T02:00:00;33.90;;;14.95;;
30617;SDS011;17384;51.214;9.202;2022-11-20T02:02:26;32.40;;;14.40;;
30617;SDS011;17384;51.214;9.202;2022-11-20T02:04:52;31.58;;;14.60;;
30617;SDS011;17384;51.214;9.202;2022-11-20T02:07:18;32.30;;;14.90;;
30617;SDS011;17384;51.214;9.202;2022-11-20T02:09:44;30.77;;;14.05;;
30617;SDS011;17384;51.214;9.202;2022-11-20T02:12:10;32.28;;;14.27;;
30617;SDS011;17384;51.214;9.202;2022-11-20T02:14:56;29.83;;;15.05;;
30617;SDS011;17384;51.214;9.202;2022-11-20T02:17:21;34.78;;;16.88;;
30617;SDS011;17384;51.214;9.202;2022-11-20T02:19:47;34.00;;;15.68;;
30617;SDS011;17384;51.214;9.202;2022-11-20T02:22:14;33.10;;;14.30;;
30617;SDS011;17384;51.214;9.202;2022-11-20T02:24:43;33.45;;;15.73;;
30617;SDS011;17384;51.214;9.202;2022-11-20T02:27:13;35.65;;;14.68;;
30617;SDS011;17384;51.214;9.202;2022-11-20T02:29:42;34.33;;;14.27;;
30617;SDS011;17384;51.214;9.202;2022-11-20T02:32:22;28.13;;;13.40;;
30617;SDS011;17384;51.214;9.202;2022-11-20T02:34:47;31.52;;;14.73;;
30617;SDS011;17384;51.214;9.202;2022-11-20T02:37:12;31.92;;;14.77;;
30617;SDS011;17384;51.214;9.202;2022-11-20T02:39:38;34.17;;;15.57;;
30617;SDS011;17384;51.214;9.202;2022-11-20T02:42:04;37.28;;;16.33;;
30617;SDS011;17384;51.214;9.202;2022-11-20T02:44:29;34.28;;;14.27;;
30617;SDS011;17384;51.214;9.202;2022-11-20T02:46:56;26.80;;;13.45;;
30617;SDS011;17384;51.214;9.202;2022-11-20T02:49:22;32.63;;;14.25;;
30617;SDS011;17384;51.214;9.202;2022-11-20T02:51:47;32.70;;;15.25;;
30617;SDS011;17384;51.214;9.202;2022-11-20T02:54:12;32.35;;;14.68;;
30617;SDS011;17384;51.214;9.202;2022-11-20T02:56:38;32.28;;;15.30;;
30617;SDS011;17384;51.214;9.202;2022-11-20T02:59:04;33.33;;;15.13;;
30617;SDS011;17384;51.214;9.202;2022-11-20T03:01:29;31.70;;;14.88;;
30617;SDS011;17384;51.214;9.202;2022-11-20T03:03:54;31.80;;;14.80;;
30617;SDS011;17384;51.214;9.202;2022-11-20T03:06:21;33.40;;;15.80;;
30617;SDS011;17384;51.214;9.202;2022-11-20T03:08:46;30.15;;;13.77;;
30617;SDS011;17384;51.214;9.202;2022-11-20T03:11:12;29.48;;;14.25;;
30617;SDS011;17384;51.214;9.202;2022-11-20T03:13:37;32.72;;;15.32;;
30617;SDS011;17384;51.214;9.202;2022-11-20T03:16:09;31.52;;;14.68;;
30617;SDS011;17384;51.214;9.202;2022-11-20T03:18:35;33.50;;;14.32;;
30617;SDS011;17384;51.214;9.202;2022-11-20T03:21:00;32.25;;;14.60;;
30617;SDS011;17384;51.214;9.202;2022-11-20T03:23:26;31.25;;;14.88;;
30617;SDS011;17384;51.214;9.202;2022-11-20T03:25:53;35.33;;;16.13;;
30617;SDS011;17384;51.214;9.202;2022-11-20T03:28:18;37.38;;;15.88;;
30617;SDS011;17384;51.214;9.202;2022-11-20T03:30:44;37.63;;;16.15;;
30617;SDS011;17384;51.214;9.202;2022-11-20T03:33:09;37.50;;;16.02;;
30617;SDS011;17384;51.214;9.202;2022-11-20T03:35:34;30.63;;;13.93;;
30617;SDS011;17384;51.214;9.202;2022-11-20T03:38:00;34.10;;;16.48;;
30617;SDS011;17384;51.214;9.202;2022-11-20T03:40:25;34.03;;;14.95;;
30617;SDS011;17384;51.214;9.202;2022-11-20T03:42:50;37.92;;;14.25;;
30617;SDS011;17384;51.214;9.202;2022-11-20T03:45:16;30.42;;;13.95;;
30617;SDS011;17384;51.214;9.202;2022-11-20T03:47:42;34.10;;;16.05;;
30617;SDS011;17384;51.214;9.202;2022-11-20T03:50:08;33.75;;;14.60;;
30617;SDS011;17384;51.214;9.202;2022-11-20T03:52:34;40.65;;;16.88;;
30617;SDS011;17384;51.214;9.202;2022-11-20T03:54:59;33.40;;;16.33;;
30617;SDS011;17384;51.214;9.202;2022-11-20T03:57:24;31.60;;;15.20;;
30617;SDS011;17384;51.214;9.202;2022-11-20T03:59:50;37.17;;;15.88;;
30617;SDS011;17384;51.214;9.202;2022-11-20T04:02:15;40.53;;;17.77;;
30617;SDS011;17384;51.214;9.202;2022-11-20T04:04:40;39.53;;;16.13;;
30617;SDS011;17384;51.214;9.202;2022-11-20T04:07:05;33.30;;;16.95;;
30617;SDS011;17384;51.214;9.202;2022-11-20T04:09:31;38.88;;;16.67;;
30617;SDS011;17384;51.214;9.202;2022-11-20T04:11:56;45.28;;;18.33;;
30617;SDS011;17384;51.214;9.202;2022-11-20T04:14:21;41.38;;;18.38;;
30617;SDS011;17384;51.214;9.202;2022-11-20T04:16:47;34.88;;;17.40;;
30617;SDS011;17384;51.214;9.202;2022-11-20T04:19:13;40.42;;;18.33;;
30617;SDS011;17384;51.214;9.202;2022-11-20T04:21:39;39.80;;;18.52;;
30617;SDS011;17384;51.214;9.202;2022-11-20T04:24:04;36.53;;;18.48;;
30617;SDS011;17384;51.214;9.202;2022-11-20T04:26:30;41.42;;;18.95;;
30617;SDS011;17384;51.214;9.202;2022-11-20T04:28:56;43.97;;;18.60;;
30617;SDS011;17384;51.214;9.202;2022-11-20T04:31:23;39.08;;;18.67;;
30617;SDS011;17384;51.214;9.202;2022-11-20T04:33:49;41.47;;;17.92;;
30617;SDS011;17384;51.214;9.202;2022-11-20T04:36:15;46.38;;;19.42;;
30617;SDS011;17384;51.214;9.202;2022-11-20T04:38:41;35.88;;;17.35;;
30617;SDS011;17384;51.214;9.202;2022-11-20T04:41:07;36.10;;;17.77;;
30617;SDS011;17384;51.214;9.202;2022-11-20T04:43:33;42.72;;;19.38;;
30617;SDS011;17384;51.214;9.202;2022-11-20T04:45:58;40.85;;;18.65;;
30617;SDS011;17384;51.214;9.202;2022-11-20T04:48:24;42.38;;;19.10;;
30617;SDS011;17384;51.214;9.202;2022-11-20T04:50:50;43.13;;;17.42;;
30617;SDS011;17384;51.214;9.202;2022-11-20T04:53:16;39.30;;;17.15;;
30617;SDS011;17384;51.214;9.202;2022-11-20T04:55:41;43.25;;;18.90;;
30617;SDS011;17384;51.214;9.202;2022-11-20T04:58:06;42.63;;;17.02;;
30617;SDS011;17384;51.214;9.202;2022-11-20T05:00:32;45.78;;;18.98;;
30617;SDS011;17384;51.214;9.202;2022-11-20T05:02:57;36.70;;;17.73;;
30617;SDS011;17384;51.214;9.202;2022-11-20T05:05:23;46.60;;;19.20;;
30617;SDS011;17384;51.214;9.202;2022-11-20T05:07:48;39.78;;;17.90;;
30617;SDS011;17384;51.214;9.202;2022-11-20T05:10:13;46.22;;;19.77;;
30617;SDS011;17384;51.214;9.202;2022-11-20T05:12:39;37.40;;;17.50;;
30617;SDS011;17384;51.214;9.202;2022-11-20T05:15:04;38.42;;;17.08;;
30617;SDS011;17384;51.214;9.202;2022-11-20T05:17:29;38.95;;;17.10;;
30617;SDS011;17384;51.214;9.202;2022-11-20T05:19:55;38.55;;;16.83;;
30617;SDS011;17384;51.214;9.202;2022-11-20T05:22:20;37.20;;;17.90;;
30617;SDS011;17384;51.214;9.202;2022-11-20T05:24:45;36.33;;;18.33;;
30617;SDS011;17384;51.214;9.202;2022-11-20T05:27:11;37.25;;;17.52;;
30617;SDS011;17384;51.214;9.202;2022-11-20T05:29:36;39.92;;;17.88;;
30617;SDS011;17384;51.214;9.202;2022-11-20T05:32:01;40.42;;;18.55;;
30617;SDS011;17384;51.214;9.202;2022-11-20T05:34:27;40.30;;;19.02;;
30617;SDS011;17384;51.214;9.202;2022-11-20T05:36:52;40.83;;;18.60;;
30617;SDS011;17384;51.214;9.202;2022-11-20T05:39:17;41.13;;;19.70;;
30617;SDS011;17384;51.214;9.202;2022-11-20T05:41:43;45.50;;;20.20;;
30617;SDS011;17384;51.214;9.202;2022-11-20T05:44:10;37.40;;;18.90;;
30617;SDS011;17384;51.214;9.202;2022-11-20T05:46:35;41.22;;;20.38;;
30617;SDS011;17384;51.214;9.202;2022-11-20T05:49:00;40.83;;;18.45;;
30617;SDS011;17384;51.214;9.202;2022-11-20T05:51:26;37.45;;;18.40;;
30617;SDS011;17384;51.214;9.202;2022-11-20T05:53:51;43.45;;;18.73;;
30617;SDS011;17384;51.214;9.202;2022-11-20T05:56:17;47.65;;;19.25;;
30617;SDS011;17384;51.214;9.202;2022-11-20T05:58:43;38.72;;;18.33;;
30617;SDS011;17384;51.214;9.202;2022-11-20T06:01:13;43.10;;;18.75;;
30617;SDS011;17384;51.214;9.202;2022-11-20T06:03:39;46.97;;;20.00;;
30617;SDS011;17384;51.214;9.202;2022-11-20T06:06:05;47.67;;;19.85;;
30617;SDS011;17384;51.214;9.202;2022-11-20T06:08:31;41.17;;;18.83;;
30617;SDS011;17384;51.214;9.202;2022-11-20T06:10:57;42.53;;;19.05;;
30617;SDS011;17384;51.214;9.202;2022-11-20T06:13:22;48.85;;;19.45;;
30617;SDS011;17384;51.214;9.202;2022-11-20T06:15:49;59.15;;;23.02;;
30617;SDS011;17384;51.214;9.202;2022-11-20T06:18:14;56.30;;;21.30;;
30617;SDS011;17384;51.214;9.202;2022-11-20T06:20:40;59.38;;;20.05;;
30617;SDS011;17384;51.214;9.202;2022-11-20T06:23:05;59.28;;;21.90;;
30617;SDS011;17384;51.214;9.202;2022-11-20T06:25:30;55.30;;;21.35;;
30617;SDS011;17384;51.214;9.202;2022-11-20T06:27:55;69.25;;;21.85;;
30617;SDS011;17384;51.214;9.202;2022-11-20T06:30:21;68.07;;;23.00;;
30617;SDS011;17384;51.214;9.202;2022-11-20T06:32:46;61.97;;;21.02;;
30617;SDS011;17384;51.214;9.202;2022-11-20T06:35:11;55.70;;;21.75;;
30617;SDS011;17384;51.214;9.202;2022-11-20T06:37:37;54.67;;;23.23;;
30617;SDS011;17384;51.214;9.202;2022-11-20T06:40:02;58.58;;;23.00;;
30617;SDS011;17384;51.214;9.202;2022-11-20T06:42:27;58.30;;;22.10;;
30617;SDS011;17384;51.214;9.202;2022-11-20T06:44:53;61.67;;;22.27;;
30617;SDS011;17384;51.214;9.202;2022-11-20T06:47:18;58.83;;;22.25;;
30617;SDS011;17384;51.214;9.202;2022-11-20T06:49:43;53.28;;;21.70;;
30617;SDS011;17384;51.214;9.202;2022-11-20T06:52:09;54.72;;;21.70;;
30617;SDS011;17384;51.214;9.202;2022-11-20T06:54:34;53.03;;;21.23;;
30617;SDS011;17384;51.214;9.202;2022-11-20T06:56:59;58.53;;;19.85;;
30617;SDS011;17384;51.214;9.202;2022-11-20T06:59:25;65.15;;;23.65;;
30617;SDS011;17384;51.214;9.202;2022-11-20T07:01:50;53.53;;;21.60;;
30617;SDS011;17384;51.214;9.202;2022-11-20T07:04:15;60.15;;;22.90;;
30617;SDS011;17384;51.214;9.202;2022-11-20T07:06:40;64.07;;;22.80;;
30617;SDS011;17384;51.214;9.202;2022-11-20T07:09:06;63.90;;;21.38;;
30617;SDS011;17384;51.214;9.202;2022-11-20T07:11:31;56.47;;;21.52;;
30617;SDS011;17384;51.214;9.202;2022-11-20T07:13:56;68.40;;;23.70;;
30617;SDS011;17384;51.214;9.202;2022-11-20T07:16:22;54.78;;;20.05;;
30617;SDS011;17384;51.214;9.202;2022-11-20T07:18:47;51.78;;;18.67;;
30617;SDS011;17384;51.214;9.202;2022-11-20T07:21:13;49.10;;;14.05;;
30617;SDS011;17384;51.214;9.202;2022-11-20T07:23:38;43.53;;;16.88;;
30617;SDS011;17384;51.214;9.202;2022-11-20T07:26:04;50.45;;;18.88;;
30617;SDS011;17384;51.214;9.202;2022-11-20T07:28:30;50.42;;;15.38;;
30617;SDS011;17384;51.214;9.202;2022-11-20T07:30:55;51.97;;;18.45;;
30617;SDS011;17384;51.214;9.202;2022-11-20T07:33:20;45.33;;;17.08;;
30617;SDS011;17384;51.214;9.202;2022-11-20T07:35:46;66.78;;;20.27;;
30617;SDS011;17384;51.214;9.202;2022-11-20T07:38:11;63.55;;;19.90;;
30617;SDS011;17384;51.214;9.202;2022-11-20T07:40:36;68.43;;;23.10;;
30617;SDS011;17384;51.214;9.202;2022-11-20T07:43:02;76.85;;;25.17;;
30617;SDS011;17384;51.214;9.202;2022-11-20T07:45:27;49.53;;;17.92;;
30617;SDS011;17384;51.214;9.202;2022-11-20T07:47:53;57.53;;;19.17;;
30617;SDS011;17384;51.214;9.202;2022-11-20T07:50:18;45.22;;;17.50;;
30617;SDS011;17384;51.214;9.202;2022-11-20T07:52:44;43.50;;;14.88;;
30617;SDS011;17384;51.214;9.202;2022-11-20T07:55:09;35.70;;;14.98;;
30617;SDS011;17384;51.214;9.202;2022-11-20T07:57:35;43.58;;;16.13;;
30617;SDS011;17384;51.214;9.202;2022-11-20T08:00:01;44.35;;;16.77;;
30617;SDS011;17384;51.214;9.202;2022-11-20T08:02:26;49.28;;;20.85;;
30617;SDS011;17384;51.214;9.202;2022-11-20T08:04:51;58.58;;;23.67;;
30617;SDS011;17384;51.214;9.202;2022-11-20T08:07:17;63.80;;;25.35;;
30617;SDS011;17384;51.214;9.202;2022-11-20T08:09:42;65.78;;;25.20;;
30617;SDS011;17384;51.214;9.202;2022-11-20T08:12:07;64.85;;;23.50;;
30617;SDS011;17384;51.214;9.202;2022-11-20T08:14:51;47.17;;;19.35;;
30617;SDS011;17384;51.214;9.202;2022-11-20T08:17:17;45.30;;;18.38;;
30617;SDS011;17384;51.214;9.202;2022-11-20T08:19:42;44.50;;;19.30;;
30617;SDS011;17384;51.214;9.202;2022-11-20T08:22:08;45.83;;;19.70;;
30617;SDS011;17384;51.214;9.202;2022-11-20T08:24:33;46.88;;;18.70;;
30617;SDS011;17384;51.214;9.202;2022-11-20T08:26:58;51.33;;;20.98;;
30617;SDS011;17384;51.214;9.202;2022-11-20T08:29:24;44.60;;;19.80;;
30617;SDS011;17384;51.214;9.202;2022-11-20T08:31:49;40.83;;;17.65;;
30617;SDS011;17384;51.214;9.202;2022-11-20T08:34:15;48.42;;;20.33;;
30617;SDS011;17384;51.214;9.202;2022-11-20T08:36:40;63.55;;;25.50;;
30617;SDS011;17384;51.214;9.202;2022-11-20T08:39:05;63.33;;;25.30;;
30617;SDS011;17384;51.214;9.202;2022-11-20T08:41:31;60.53;;;22.05;;
30617;SDS011;17384;51.214;9.202;2022-11-20T08:44:05;47.50;;;20.33;;
30617;SDS011;17384;51.214;9.202;2022-11-20T08:46:35;41.10;;;17.50;;
30617;SDS011;17384;51.214;9.202;2022-11-20T08:49:02;37.15;;;15.77;;
30617;SDS011;17384;51.214;9.202;2022-11-20T08:51:28;38.80;;;16.20;;
30617;SDS011;17384;51.214;9.202;2022-11-20T08:53:53;35.38;;;16.33;;
30617;SDS011;17384;51.214;9.202;2022-11-20T08:56:18;35.20;;;16.25;;
30617;SDS011;17384;51.214;9.202;2022-11-20T08:58:43;31.70;;;13.10;;
30617;SDS011;17384;51.214;9.202;2022-11-20T09:01:09;28.30;;;12.10;;
30617;SDS011;17384;51.214;9.202;2022-11-20T09:03:34;24.75;;;11.38;;
30617;SDS011;17384;51.214;9.202;2022-11-20T09:06:00;36.50;;;15.05;;
30617;SDS011;17384;51.214;9.202;2022-11-20T09:08:26;33.47;;;13.70;;
30617;SDS011;17384;51.214;9.202;2022-11-20T09:10:52;33.50;;;14.20;;
30617;SDS011;17384;51.214;9.202;2022-11-20T09:13:17;33.90;;;13.40;;
30617;SDS011;17384;51.214;9.202;2022-11-20T09:15:43;32.67;;;13.75;;
30617;SDS011;17384;51.214;9.202;2022-11-20T09:18:08;31.13;;;12.98;;
30617;SDS011;17384;51.214;9.202;2022-11-20T09:20:33;28.65;;;11.68;;
30617;SDS011;17384;51.214;9.202;2022-11-20T09:22:58;22.77;;;11.43;;
30617;SDS011;17384;51.214;9.202;2022-11-20T09:25:24;24.48;;;11.48;;
30617;SDS011;17384;51.214;9.202;2022-11-20T09:27:56;21.48;;;10.77;;
30617;SDS011;17384;51.214;9.202;2022-11-20T09:30:21;25.20;;;11.43;;
30617;SDS011;17384;51.214;9.202;2022-11-20T09:32:46;26.77;;;12.63;;
30617;SDS011;17384;51.214;9.202;2022-11-20T09:35:12;27.58;;;10.95;;
30617;SDS011;17384;51.214;9.202;2022-11-20T09:37:37;24.73;;;10.65;;
30617;SDS011;17384;51.214;9.202;2022-11-20T09:40:03;26.27;;;11.50;;
30617;SDS011;17384;51.214;9.202;2022-11-20T09:45:02;31.02;;;14.35;;
30617;SDS011;17384;51.214;9.202;2022-11-20T09:55:31;35.40;;;13.43;;
30617;SDS011;17384;51.214;9.202;2022-11-20T09:57:56;26.83;;;12.30;;
30617;SDS011;17384;51.214;9.202;2022-11-20T10:00:23;27.88;;;12.70;;
30617;SDS011;17384;51.214;9.202;2022-11-20T10:02:52;26.52;;;12.38;;
30617;SDS011;17384;51.214;9.202;2022-11-20T10:07:48;27.02;;;12.30;;
30617;SDS011;17384;51.214;9.202;2022-11-20T10:10:40;27.55;;;12.63;;
30617;SDS011;17384;51.214;9.202;2022-11-20T10:13:14;24.48;;;12.60;;
30617;SDS011;17384;51.214;9.202;2022-11-20T10:15:46;26.65;;;12.93;;
30617;SDS011;17384;51.214;9.202;2022-11-20T10:18:28;25.02;;;12.77;;
30617;SDS011;17384;51.214;9.202;2022-11-20T10:21:00;31.92;;;14.23;;
30617;SDS011;17384;51.214;9.202;2022-11-20T10:23:39;30.20;;;13.18;;
30617;SDS011;17384;51.214;9.202;2022-11-20T10:33:51;23.80;;;11.00;;
30617;SDS011;17384;51.214;9.202;2022-11-20T10:36:19;25.17;;;11.07;;
30617;SDS011;17384;51.214;9.202;2022-11-20T10:38:50;25.23;;;11.75;;
30617;SDS011;17384;51.214;9.202;2022-11-20T10:41:30;23.00;;;11.30;;
30617;SDS011;17384;51.214;9.202;2022-11-20T10:44:05;22.23;;;11.70;;
30617;SDS011;17384;51.214;9.202;2022-11-20T10:49:25;25.73;;;14.70;;
30617;SDS011;17384;51.214;9.202;2022-11-20T10:56:54;28.20;;;14.77;;
30617;SDS011;17384;51.214;9.202;2022-11-20T11:01:52;16.38;;;8.95;;
30617;SDS011;17384;51.214;9.202;2022-11-20T11:06:49;17.08;;;9.15;;
30617;SDS011;17384;51.214;9.202;2022-11-20T11:09:16;18.27;;;9.75;;
30617;SDS011;17384;51.214;9.202;2022-11-20T11:11:44;16.75;;;9.77;;
30617;SDS011;17384;51.214;9.202;2022-11-20T11:14:10;14.73;;;8.95;;
30617;SDS011;17384;51.214;9.202;2022-11-20T11:16:40;19.15;;;9.50;;
30617;SDS011;17384;51.214;9.202;2022-11-20T11:19:13;17.15;;;9.20;;
30617;SDS011;17384;51.214;9.202;2022-11-20T11:21:38;14.20;;;8.00;;
30617;SDS011;17384;51.214;9.202;2022-11-20T11:24:18;16.20;;;8.15;;
30617;SDS011;17384;51.214;9.202;2022-11-20T11:26:50;13.93;;;7.45;;
30617;SDS011;17384;51.214;9.202;2022-11-20T11:29:17;12.60;;;7.80;;
30617;SDS011;17384;51.214;9.202;2022-11-20T11:31:42;12.52;;;7.20;;
30617;SDS011;17384;51.214;9.202;2022-11-20T11:34:11;15.85;;;7.57;;
30617;SDS011;17384;51.214;9.202;2022-11-20T11:36:37;18.70;;;9.63;;
30617;SDS011;17384;51.214;9.202;2022-11-20T11:39:03;22.40;;;11.07;;
30617;SDS011;17384;51.214;9.202;2022-11-20T11:41:31;23.83;;;11.80;;
30617;SDS011;17384;51.214;9.202;2022-11-20T11:44:00;24.40;;;14.38;;
30617;SDS011;17384;51.214;9.202;2022-11-20T11:46:49;23.48;;;11.60;;
30617;SDS011;17384;51.214;9.202;2022-11-20T11:49:18;19.38;;;10.15;;
30617;SDS011;17384;51.214;9.202;2022-11-20T11:54:15;19.65;;;10.25;;
30617;SDS011;17384;51.214;9.202;2022-11-20T11:56:41;23.15;;;11.15;;
30617;SDS011;17384;51.214;9.202;2022-11-20T11:59:08;20.65;;;10.73;;
30617;SDS011;17384;51.214;9.202;2022-11-20T12:01:43;22.00;;;12.90;;
30617;SDS011;17384;51.214;9.202;2022-11-20T12:06:35;25.70;;;15.32;;
30617;SDS011;17384;51.214;9.202;2022-11-20T12:09:03;24.17;;;16.58;;
30617;SDS011;17384;51.214;9.202;2022-11-20T12:11:30;20.05;;;11.68;;
30617;SDS011;17384;51.214;9.202;2022-11-20T12:13:59;21.60;;;11.32;;
30617;SDS011;17384;51.214;9.202;2022-11-20T12:16:27;18.55;;;11.02;;
30617;SDS011;17384;51.214;9.202;2022-11-20T12:18:53;19.38;;;10.60;;
30617;SDS011;17384;51.214;9.202;2022-11-20T12:31:51;27.02;;;13.48;;
30617;SDS011;17384;51.214;9.202;2022-11-20T12:39:35;31.17;;;16.02;;
30617;SDS011;17384;51.214;9.202;2022-11-20T12:45:09;39.58;;;17.65;;
30617;SDS011;17384;51.214;9.202;2022-11-20T12:52:38;32.83;;;15.90;;
30617;SDS011;17384;51.214;9.202;2022-11-20T12:55:28;33.25;;;14.85;;
30617;SDS011;17384;51.214;9.202;2022-11-20T12:57:54;35.47;;;17.70;;
30617;SDS011;17384;51.214;9.202;2022-11-20T13:00:22;33.83;;;16.05;;
30617;SDS011;17384;51.214;9.202;2022-11-20T13:08:20;31.33;;;14.20;;
30617;SDS011;17384;51.214;9.202;2022-11-20T13:10:59;27.17;;;13.88;;
30617;SDS011;17384;51.214;9.202;2022-11-20T13:13:31;27.08;;;14.07;;
30617;SDS011;17384;51.214;9.202;2022-11-20T13:15:59;26.50;;;13.35;;
30617;SDS011;17384;51.214;9.202;2022-11-20T13:18:26;29.70;;;14.23;;
30617;SDS011;17384;51.214;9.202;2022-11-20T13:20:51;27.33;;;14.48;;
30617;SDS011;17384;51.214;9.202;2022-11-20T13:23:26;29.05;;;13.90;;
30617;SDS011;17384;51.214;9.202;2022-11-20T13:26:02;27.77;;;13.23;;
30617;SDS011;17384;51.214;9.202;2022-11-20T13:28:29;27.00;;;14.30;;
30617;SDS011;17384;51.214;9.202;2022-11-20T13:30:55;34.53;;;15.65;;
30617;SDS011;17384;51.214;9.202;2022-11-20T13:33:29;32.90;;;16.00;;
30617;SDS011;17384;51.214;9.202;2022-11-20T13:35:57;31.85;;;14.80;;
30617;SDS011;17384;51.214;9.202;2022-11-20T13:38:22;29.63;;;14.50;;
30617;SDS011;17384;51.214;9.202;2022-11-20T13:40:58;34.42;;;16.13;;
30617;SDS011;17384;51.214;9.202;2022-11-20T13:43:39;30.65;;;15.68;;
30617;SDS011;17384;51.214;9.202;2022-11-20T13:46:06;33.53;;;15.40;;
30617;SDS011;17384;51.214;9.202;2022-11-20T13:48:32;37.80;;;18.65;;
30617;SDS011;17384;51.214;9.202;2022-11-20T13:53:46;35.40;;;17.50;;
30617;SDS011;17384;51.214;9.202;2022-11-20T13:58:51;40.38;;;17.73;;
30617;SDS011;17384;51.214;9.202;2022-11-20T14:01:25;42.88;;;18.85;;
30617;SDS011;17384;51.214;9.202;2022-11-20T14:03:51;39.17;;;19.92;;
30617;SDS011;17384;51.214;9.202;2022-11-20T14:08:49;43.33;;;19.98;;
30617;SDS011;17384;51.214;9.202;2022-11-20T14:11:19;47.90;;;20.38;;
30617;SDS011;17384;51.214;9.202;2022-11-20T14:13:52;43.97;;;21.35;;
30617;SDS011;17384;51.214;9.202;2022-11-20T14:16:19;47.78;;;21.75;;
30617;SDS011;17384;51.214;9.202;2022-11-20T14:18:45;44.25;;;20.80;;
30617;SDS011;17384;51.214;9.202;2022-11-20T14:21:10;49.55;;;21.38;;
30617;SDS011;17384;51.214;9.202;2022-11-20T14:23:35;49.50;;;21.70;;
30617;SDS011;17384;51.214;9.202;2022-11-20T14:26:01;48.72;;;22.27;;
30617;SDS011;17384;51.214;9.202;2022-11-20T14:28:27;49.88;;;21.13;;
30617;SDS011;17384;51.214;9.202;2022-11-20T14:30:53;54.83;;;22.25;;
30617;SDS011;17384;51.214;9.202;2022-11-20T14:33:19;55.97;;;23.55;;
30617;SDS011;17384;51.214;9.202;2022-11-20T14:35:53;52.63;;;23.73;;
30617;SDS011;17384;51.214;9.202;2022-11-20T14:38:20;57.10;;;25.33;;
30617;SDS011;17384;51.214;9.202;2022-11-20T14:40:46;54.47;;;23.35;;
30617;SDS011;17384;51.214;9.202;2022-11-20T14:45:43;56.20;;;22.67;;
30617;SDS011;17384;51.214;9.202;2022-11-20T14:48:09;51.55;;;22.35;;
30617;SDS011;17384;51.214;9.202;2022-11-20T14:50:35;57.03;;;23.15;;
30617;SDS011;17384;51.214;9.202;2022-11-20T14:53:03;57.50;;;26.58;;
30617;SDS011;17384;51.214;9.202;2022-11-20T14:55:32;56.22;;;22.80;;
30617;SDS011;17384;51.214;9.202;2022-11-20T14:58:04;63.13;;;24.77;;
30617;SDS011;17384;51.214;9.202;2022-11-20T15:00:31;56.07;;;24.17;;
30617;SDS011;17384;51.214;9.202;2022-11-20T15:02:56;71.22;;;26.65;;
30617;SDS011;17384;51.214;9.202;2022-11-20T15:05:38;60.53;;;24.20;;
30617;SDS011;17384;51.214;9.202;2022-11-20T15:08:08;62.40;;;26.42;;
30617;SDS011;17384;51.214;9.202;2022-11-20T15:10:33;65.63;;;26.17;;
30617;SDS011;17384;51.214;9.202;2022-11-20T15:13:03;71.45;;;25.40;;
30617;SDS011;17384;51.214;9.202;2022-11-20T15:15:30;66.50;;;25.88;;
30617;SDS011;17384;51.214;9.202;2022-11-20T15:17:56;77.60;;;28.90;;
30617;SDS011;17384;51.214;9.202;2022-11-20T15:20:22;75.15;;;28.92;;
30617;SDS011;17384;51.214;9.202;2022-11-20T15:22:49;76.18;;;27.90;;
30617;SDS011;17384;51.214;9.202;2022-11-20T15:25:14;89.03;;;36.28;;
30617;SDS011;17384;51.214;9.202;2022-11-20T15:27:41;77.75;;;30.55;;
30617;SDS011;17384;51.214;9.202;2022-11-20T15:30:17;80.78;;;29.13;;
30617;SDS011;17384;51.214;9.202;2022-11-20T15:32:43;80.88;;;29.80;;
30617;SDS011;17384;51.214;9.202;2022-11-20T15:35:09;84.50;;;32.33;;
30617;SDS011;17384;51.214;9.202;2022-11-20T15:37:35;88.18;;;31.05;;
30617;SDS011;17384;51.214;9.202;2022-11-20T15:40:00;88.63;;;31.25;;
30617;SDS011;17384;51.214;9.202;2022-11-20T15:42:25;83.07;;;32.00;;
30617;SDS011;17384;51.214;9.202;2022-11-20T15:44:51;89.63;;;31.73;;